createdAt,value
2018-07-07T00:01:24.655Z,101049.93
2018-07-07T00:03:53.703Z,101050.09
2018-07-07T00:06:22.707Z,101053.36
2018-07-07T00:08:51.369Z,101052.81
2018-07-07T00:11:20.502Z,101050.05
2018-07-07T00:13:49.193Z,101048.01
2018-07-07T00:16:17.916Z,101054.02
2018-07-07T00:18:46.976Z,101053.26
2018-07-07T00:21:15.691Z,101056.34
2018-07-07T00:23:44.375Z,101056.00
2018-07-07T00:26:13.829Z,101055.25
2018-07-07T00:28:43.555Z,101054.18
2018-07-07T00:31:12.965Z,101049.61
2018-07-07T00:33:42.423Z,101051.23
2018-07-07T00:36:11.810Z,101050.41
2018-07-07T00:38:41.232Z,101048.00
2018-07-07T00:41:10.674Z,101052.50
2018-07-07T00:43:39.669Z,101055.64
2018-07-07T00:46:08.958Z,101061.64
2018-07-07T00:48:38.560Z,101058.23
2018-07-07T00:51:08.240Z,101060.09
2018-07-07T00:53:37.718Z,101062.98
2018-07-07T00:56:07.529Z,101063.68
2018-07-07T00:58:36.647Z,101051.63
2018-07-07T01:01:05.926Z,101058.17
2018-07-07T01:03:35.585Z,101052.27
2018-07-07T01:06:06.006Z,101063.59
2018-07-07T01:08:35.337Z,101059.66
2018-07-07T01:11:04.611Z,101055.30
2018-07-07T01:13:33.980Z,101059.80
2018-07-07T01:16:04.591Z,101062.76
2018-07-07T01:18:35.239Z,101054.72
2018-07-07T01:21:04.582Z,101059.95
2018-07-07T01:23:33.964Z,101061.08
2018-07-07T01:26:04.244Z,101063.98
2018-07-07T01:28:33.486Z,101060.45
2018-07-07T01:31:02.537Z,101060.08
2018-07-07T01:33:32.084Z,101061.94
2018-07-07T01:36:01.010Z,101062.20
2018-07-07T01:38:29.991Z,101061.02
2018-07-07T01:40:59.781Z,101067.01
2018-07-07T01:43:29.124Z,101063.33
2018-07-07T01:45:58.558Z,101062.47
2018-07-07T01:48:28.258Z,101053.95
2018-07-07T01:50:57.224Z,101058.67
2018-07-07T01:53:26.296Z,101058.19
2018-07-07T01:55:55.896Z,101058.98
2018-07-07T01:58:25.073Z,101060.65
2018-07-07T02:00:54.519Z,101056.63
2018-07-07T02:03:24.505Z,101060.16
2018-07-07T02:05:53.844Z,101056.56
2018-07-07T02:08:23.103Z,101060.09
2018-07-07T02:10:52.761Z,101058.39
2018-07-07T02:13:22.074Z,101059.03
2018-07-07T02:15:51.469Z,101062.49
2018-07-07T02:18:21.101Z,101058.62
2018-07-07T02:20:50.319Z,101054.39
2018-07-07T02:23:19.447Z,101056.85
2018-07-07T02:25:49.024Z,101061.88
2018-07-07T02:28:18.427Z,101062.62
2018-07-07T02:30:47.676Z,101061.58
2018-07-07T02:33:17.363Z,101059.14
2018-07-07T02:35:46.688Z,101067.80
2018-07-07T02:38:15.676Z,101062.67
2018-07-07T02:40:44.869Z,101064.65
2018-07-07T02:43:14.146Z,101063.20
2018-07-07T02:45:43.476Z,101062.31
2018-07-07T02:48:13.035Z,101051.53
2018-07-07T02:50:42.134Z,101068.70
2018-07-07T02:53:11.369Z,101065.95
2018-07-07T02:55:41.131Z,101062.69
2018-07-07T02:58:10.425Z,101069.81
2018-07-07T03:00:39.373Z,101066.91
2018-07-07T03:03:08.452Z,101057.66
2018-07-07T03:05:37.640Z,101068.03
2018-07-07T03:08:07.063Z,101062.83
2018-07-07T03:10:36.474Z,101059.07
2018-07-07T03:13:05.727Z,101066.53
2018-07-07T03:15:34.910Z,101067.65
2018-07-07T03:18:04.827Z,101070.47
2018-07-07T03:20:34.555Z,101074.73
2018-07-07T03:23:03.539Z,101078.04
2018-07-07T03:25:32.641Z,101075.99
2018-07-07T03:28:02.800Z,101076.99
2018-07-07T03:30:32.266Z,101087.09
2018-07-07T03:33:01.553Z,101079.84
2018-07-07T03:35:31.256Z,101082.14
2018-07-07T03:38:00.327Z,101087.86
2018-07-07T03:40:29.439Z,101090.05
2018-07-07T03:42:59.192Z,101090.54
2018-07-07T03:45:28.643Z,101096.03
2018-07-07T03:47:57.962Z,101102.71
2018-07-07T03:50:27.338Z,101105.39
2018-07-07T03:52:56.730Z,101100.52
2018-07-07T03:55:26.077Z,101105.98
2018-07-07T03:57:55.530Z,101107.31
2018-07-07T04:00:24.522Z,101110.22
2018-07-07T04:02:53.900Z,101108.26
2018-07-07T04:05:23.253Z,101118.62
2018-07-07T04:07:52.364Z,101113.89
2018-07-07T04:10:21.683Z,101111.33
2018-07-07T04:12:51.556Z,101117.50
2018-07-07T04:15:20.777Z,101114.83
2018-07-07T04:17:50.419Z,101114.00
2018-07-07T04:20:20.053Z,101114.97
2018-07-07T04:22:49.015Z,101112.78
2018-07-07T04:25:18.077Z,101109.48
2018-07-07T04:27:47.564Z,101113.61
2018-07-07T04:30:16.532Z,101110.45
2018-07-07T04:32:45.838Z,101111.39
2018-07-07T04:35:15.315Z,101112.87
2018-07-07T04:37:44.809Z,101113.20
2018-07-07T04:40:14.218Z,101115.86
2018-07-07T04:42:44.374Z,101115.31
2018-07-07T04:45:13.741Z,101116.11
2018-07-07T04:47:43.084Z,101109.90
2018-07-07T04:50:12.464Z,101112.66
2018-07-07T04:52:42.129Z,101111.40
2018-07-07T04:55:11.413Z,101115.72
2018-07-07T04:57:40.926Z,101114.83
2018-07-07T05:00:10.098Z,101111.52
2018-07-07T05:02:39.259Z,101109.41
2018-07-07T05:05:08.841Z,101115.84
2018-07-07T05:07:38.191Z,101113.02
2018-07-07T05:10:07.291Z,101120.41
2018-07-07T05:12:36.798Z,101116.62
2018-07-07T05:15:06.137Z,101120.23
2018-07-07T05:17:35.359Z,101126.14
2018-07-07T05:20:05.591Z,101123.69
2018-07-07T05:22:34.784Z,101126.07
2018-07-07T05:25:04.414Z,101127.89
2018-07-07T05:27:34.155Z,101121.41
2018-07-07T05:30:03.745Z,101129.52
2018-07-07T05:32:33.075Z,101123.02
2018-07-07T05:35:02.840Z,101127.62
2018-07-07T05:37:32.143Z,101126.57
2018-07-07T05:40:01.743Z,101127.41
2018-07-07T05:42:31.178Z,101125.36
2018-07-07T05:45:00.554Z,101127.69
2018-07-07T05:47:29.836Z,101128.94
2018-07-07T05:49:59.805Z,101132.59
2018-07-07T05:52:29.133Z,101135.71
2018-07-07T05:54:58.176Z,101135.32
2018-07-07T05:57:27.822Z,101140.66
2018-07-07T05:59:57.007Z,101138.03
2018-07-07T06:02:29.354Z,101134.34
2018-07-07T06:04:59.205Z,101141.92
2018-07-07T06:07:28.337Z,101137.77
2018-07-07T06:09:57.757Z,101139.39
2018-07-07T06:12:28.051Z,101139.19
2018-07-07T06:14:57.510Z,101130.77
2018-07-07T06:17:26.740Z,101130.87
2018-07-07T06:19:56.406Z,101131.34
2018-07-07T06:22:25.838Z,101134.86
2018-07-07T06:24:54.824Z,101127.47
2018-07-07T06:29:46.966Z,101133.88
2018-07-07T06:32:16.461Z,101135.70
2018-07-07T06:34:45.948Z,101132.81
2018-07-07T06:37:15.123Z,101135.13
2018-07-07T06:39:44.090Z,101137.80
2018-07-07T06:42:13.813Z,101139.74
2018-07-07T06:44:43.077Z,101134.89
2018-07-07T06:47:12.405Z,101134.31
2018-07-07T06:49:42.238Z,101138.05
2018-07-07T06:52:11.218Z,101139.00
2018-07-07T06:54:40.254Z,101136.54
2018-07-07T06:57:10.063Z,101128.77
2018-07-07T06:59:39.172Z,101129.42
2018-07-07T07:02:08.273Z,101136.17
2018-07-07T07:04:37.770Z,101140.14
2018-07-07T07:07:06.922Z,101136.17
2018-07-07T07:09:36.208Z,101130.62
2018-07-07T07:12:07.002Z,101135.14
2018-07-07T07:14:39.267Z,101137.76
2018-07-07T07:17:11.031Z,101139.16
2018-07-07T07:19:40.561Z,101135.80
2018-07-07T07:23:11.957Z,101130.94
2018-07-07T07:25:41.789Z,101136.39
2018-07-07T07:28:10.814Z,101139.48
2018-07-07T07:30:39.943Z,101137.99
2018-07-07T07:33:09.783Z,101141.02
2018-07-07T07:38:03.920Z,101135.16
2018-07-07T07:40:33.893Z,101143.28
2018-07-07T07:43:03.265Z,101142.00
2018-07-07T07:45:32.315Z,101130.77
2018-07-07T07:48:03.960Z,101131.30
2018-07-07T07:50:36.053Z,101128.80
2018-07-07T07:53:05.158Z,101130.53
2018-07-07T07:55:34.127Z,101125.16
2018-07-07T07:58:04.095Z,101127.20
2018-07-07T08:00:33.221Z,101126.25
2018-07-07T08:03:01.961Z,101123.75
2018-07-07T08:05:30.674Z,101115.49
2018-07-07T08:07:59.908Z,101117.02
2018-07-07T08:10:28.624Z,101116.20
2018-07-07T08:12:57.312Z,101117.87
2018-07-07T08:15:26.333Z,101120.07
2018-07-07T08:17:55.025Z,101113.83
2018-07-07T08:20:23.737Z,101124.78
2018-07-07T08:22:52.767Z,101113.33
2018-07-07T08:25:21.483Z,101111.98
2018-07-07T08:27:50.203Z,101117.69
2018-07-07T08:30:19.476Z,101115.41
2018-07-07T08:32:48.168Z,101119.11
2018-07-07T08:35:16.962Z,101114.91
2018-07-07T08:37:46.406Z,101117.14
2018-07-07T08:40:15.133Z,101118.63
2018-07-07T08:42:44.721Z,101118.94
2018-07-07T08:45:13.940Z,101120.59
2018-07-07T08:47:42.712Z,101119.77
2018-07-07T08:50:11.397Z,101121.42
2018-07-07T08:52:40.608Z,101124.44
2018-07-07T08:55:09.404Z,101126.77
2018-07-07T08:57:38.151Z,101123.40
2018-07-07T09:00:07.767Z,101113.64
2018-07-07T09:02:36.427Z,101119.20
2018-07-07T09:05:05.792Z,101123.61
2018-07-07T09:07:35.002Z,101120.90
2018-07-07T09:10:04.446Z,101120.90
2018-07-07T09:12:33.120Z,101118.05
2018-07-07T09:15:01.866Z,101113.20
2018-07-07T09:17:30.613Z,101113.05
2018-07-07T09:19:59.308Z,101111.94
2018-07-07T09:22:27.964Z,101108.93
2018-07-07T09:24:56.849Z,101110.59
2018-07-07T09:27:26.559Z,101117.83
2018-07-07T09:29:55.327Z,101114.98
2018-07-07T09:32:23.996Z,101114.50
2018-07-07T09:34:53.085Z,101105.56
2018-07-07T09:37:21.852Z,101108.43
2018-07-07T09:39:51.773Z,101106.73
2018-07-07T09:42:20.550Z,101105.38
2018-07-07T09:44:49.278Z,101109.11
2018-07-07T09:47:18.038Z,101100.16
2018-07-07T09:49:47.249Z,101107.76
2018-07-07T09:52:16.033Z,101102.36
2018-07-07T09:54:44.914Z,101101.37
2018-07-07T09:57:14.149Z,101097.80
2018-07-07T09:59:42.852Z,101099.31
2018-07-07T10:02:11.664Z,101094.58
2018-07-07T10:04:40.848Z,101096.59
2018-07-07T10:07:09.604Z,101096.20
2018-07-07T10:09:38.360Z,101099.21
2018-07-07T10:12:07.454Z,101091.52
2018-07-07T10:14:36.143Z,101090.58
2018-07-07T10:17:04.911Z,101093.25
2018-07-07T10:19:35.124Z,101089.71
2018-07-07T10:22:04.472Z,101096.20
2018-07-07T10:24:33.808Z,101093.69
2018-07-07T10:27:03.386Z,101093.65
2018-07-07T10:29:32.090Z,101085.96
2018-07-07T10:32:00.888Z,101089.86
2018-07-07T10:34:30.144Z,101081.34
2018-07-07T10:36:59.013Z,101083.06
2018-07-07T10:39:27.856Z,101080.73
2018-07-07T10:41:56.956Z,101080.78
2018-07-07T10:44:25.654Z,101079.09
2018-07-07T10:46:54.359Z,101078.17
2018-07-07T10:49:23.448Z,101074.80
2018-07-07T10:51:52.123Z,101076.41
2018-07-07T10:54:20.798Z,101069.83
2018-07-07T10:56:50.053Z,101071.10
2018-07-07T10:59:18.773Z,101062.33
2018-07-07T11:01:47.506Z,101058.33
2018-07-07T11:04:16.737Z,101054.84
2018-07-07T11:06:45.451Z,101059.43
2018-07-07T11:09:14.274Z,101059.02
2018-07-07T11:11:43.363Z,101055.85
2018-07-07T11:14:12.045Z,101049.01
2018-07-07T11:16:40.732Z,101053.80
2018-07-07T11:19:09.922Z,101050.29
2018-07-07T11:21:38.977Z,101056.59
2018-07-07T11:24:07.758Z,101041.58
2018-07-07T11:26:36.724Z,101041.77
2018-07-07T11:29:06.770Z,101039.78
2018-07-07T11:31:35.731Z,101040.60
2018-07-07T11:34:05.757Z,101038.51
2018-07-07T11:36:34.615Z,101035.55
2018-07-07T11:39:03.409Z,101042.90
2018-07-07T11:41:32.518Z,101043.70
2018-07-07T11:44:01.711Z,101037.17
2018-07-07T11:46:30.412Z,101046.05
2018-07-07T11:48:59.408Z,101036.53
2018-07-07T11:51:28.067Z,101032.66
2018-07-07T11:53:56.747Z,101039.06
2018-07-07T11:56:26.279Z,101037.97
2018-07-07T11:58:55.067Z,101037.12
2018-07-07T12:01:23.883Z,101033.09
2018-07-07T12:03:53.473Z,101025.13
2018-07-07T12:06:22.180Z,101030.49
2018-07-07T12:08:50.922Z,101028.09
2018-07-07T12:11:20.138Z,101026.66
2018-07-07T12:13:48.845Z,101027.97
2018-07-07T12:16:17.595Z,101020.86
2018-07-07T12:18:46.740Z,101016.86
2018-07-07T12:21:15.452Z,101022.17
2018-07-07T12:23:44.167Z,101012.97
2018-07-07T12:26:13.359Z,101009.75
2018-07-07T12:28:42.702Z,101006.27
2018-07-07T12:31:11.378Z,101006.19
2018-07-07T12:33:40.520Z,100994.38
2018-07-07T12:36:09.253Z,100990.84
2018-07-07T12:38:37.988Z,100996.30
2018-07-07T12:41:07.185Z,100994.25
2018-07-07T12:43:35.919Z,100992.41
2018-07-07T12:46:05.347Z,100992.14
2018-07-07T12:48:34.432Z,100992.66
2018-07-07T12:51:03.256Z,100992.57
2018-07-07T12:53:32.059Z,100989.53
2018-07-07T12:56:01.172Z,100990.63
2018-07-07T12:58:29.873Z,100986.09
2018-07-07T13:00:58.563Z,100983.17
2018-07-07T13:03:27.996Z,100979.39
2018-07-07T13:05:56.821Z,100976.29
2018-07-07T13:08:25.517Z,100972.95
2018-07-07T13:10:54.724Z,100974.33
2018-07-07T13:13:23.437Z,100968.69
2018-07-07T13:15:52.142Z,100972.78
2018-07-07T13:18:21.308Z,100960.23
2018-07-07T13:20:50.022Z,100966.50
2018-07-07T13:23:18.730Z,100962.86
2018-07-07T13:25:48.850Z,100965.34
2018-07-07T13:28:17.520Z,100966.75
2018-07-07T13:30:46.270Z,100969.16
2018-07-07T13:33:15.495Z,100971.61
2018-07-07T13:35:44.210Z,100972.19
2018-07-07T13:38:13.799Z,100969.20
2018-07-07T13:40:43.076Z,100966.09
2018-07-07T13:43:11.789Z,100965.04
2018-07-07T13:45:40.525Z,100965.30
2018-07-07T13:48:09.641Z,100968.55
2018-07-07T13:50:38.393Z,100959.22
2018-07-07T13:53:07.128Z,100960.72
2018-07-07T13:55:35.901Z,100959.10
2018-07-07T13:58:05.318Z,100953.55
2018-07-07T14:00:35.271Z,100951.56
2018-07-07T14:03:04.570Z,100959.83
2018-07-07T14:05:33.490Z,100961.06
2018-07-07T14:08:04.694Z,100958.72
2018-07-07T14:10:33.544Z,100958.64
2018-07-07T14:13:03.410Z,100951.97
2018-07-07T14:15:34.143Z,100956.42
2018-07-07T14:18:04.302Z,100953.11
2018-07-07T14:20:33.372Z,100941.52
2018-07-07T14:23:02.398Z,100947.81
2018-07-07T14:25:31.536Z,100940.53
2018-07-07T14:28:01.360Z,100942.07
2018-07-07T14:30:30.455Z,100946.03
2018-07-07T14:32:59.227Z,100937.99
2018-07-07T14:35:31.930Z,100938.63
2018-07-07T14:38:01.167Z,100931.64
2018-07-07T14:40:33.049Z,100927.33
2018-07-07T14:43:01.788Z,100929.66
2018-07-07T14:45:33.233Z,100925.94
2018-07-07T14:48:08.658Z,100927.87
2018-07-07T14:50:37.302Z,100929.41
2018-07-07T14:53:05.927Z,100922.64
2018-07-07T14:55:34.467Z,100919.86
2018-07-07T14:58:05.446Z,100917.71
2018-07-07T15:00:35.592Z,100914.86
2018-07-07T15:03:05.697Z,100918.75
2018-07-07T15:05:34.929Z,100914.52
2018-07-07T15:08:04.368Z,100916.64
2018-07-07T15:10:33.065Z,100918.20
2018-07-07T15:13:01.763Z,100917.14
2018-07-07T15:15:30.636Z,100922.81
2018-07-07T15:17:59.930Z,100911.36
2018-07-07T15:20:28.735Z,100912.69
2018-07-07T15:22:57.529Z,100912.91
2018-07-07T15:25:29.684Z,100910.52
2018-07-07T15:27:58.347Z,100911.72
2018-07-07T15:30:28.886Z,100909.83
2018-07-07T15:32:57.607Z,100913.50
2018-07-07T15:35:26.184Z,100900.89
2018-07-07T15:37:55.290Z,100902.50
2018-07-07T15:40:26.469Z,100905.43
2018-07-07T15:42:55.271Z,100906.64
2018-07-07T15:45:24.291Z,100902.91
2018-07-07T15:47:53.032Z,100900.02
2018-07-07T15:50:21.943Z,100900.93
2018-07-07T15:52:51.103Z,100899.22
2018-07-07T15:55:19.690Z,100894.33
2018-07-07T15:57:48.259Z,100903.05
2018-07-07T16:00:17.399Z,100900.38
2018-07-07T16:02:46.168Z,100896.81
2018-07-07T16:05:14.765Z,100889.73
2018-07-07T16:07:43.748Z,100900.26
2018-07-07T16:10:12.262Z,100897.26
2018-07-07T16:12:41.030Z,100899.97
2018-07-07T16:15:11.377Z,100896.36
2018-07-07T16:17:40.604Z,100893.75
2018-07-07T16:20:09.155Z,100896.05
2018-07-07T16:22:38.018Z,100890.39
2018-07-07T16:25:06.600Z,100883.38
2018-07-07T16:27:35.357Z,100888.21
2018-07-07T16:30:04.935Z,100890.34
2018-07-07T16:32:33.508Z,100885.23
2018-07-07T16:35:02.067Z,100882.32
2018-07-07T16:37:30.942Z,100878.78
2018-07-07T16:39:59.505Z,100879.48
2018-07-07T16:42:28.073Z,100875.48
2018-07-07T16:47:32.927Z,100875.44
2018-07-07T16:50:04.303Z,100865.56
2018-07-07T16:52:33.197Z,100880.14
2018-07-07T16:55:05.840Z,100865.28
2018-07-07T16:57:34.465Z,100863.19
2018-07-07T17:00:04.684Z,100862.72
2018-07-07T17:02:33.263Z,100869.28
2018-07-07T17:05:01.925Z,100866.34
2018-07-07T17:07:30.984Z,100864.84
2018-07-07T17:09:59.708Z,100869.16
2018-07-07T17:12:28.315Z,100869.53
2018-07-07T17:14:57.209Z,100863.39
2018-07-07T17:17:30.751Z,100863.76
2018-07-07T17:19:59.337Z,100870.95
2018-07-07T17:22:28.642Z,100875.09
2018-07-07T17:24:57.315Z,100876.25
2018-07-07T17:27:26.079Z,100875.61
2018-07-07T17:29:55.056Z,100874.16
2018-07-07T17:32:23.744Z,100876.80
2018-07-07T17:34:59.645Z,100876.38
2018-07-07T17:37:29.249Z,100879.31
2018-07-07T17:39:57.855Z,100874.36
2018-07-07T17:42:27.058Z,100874.97
2018-07-07T17:44:59.555Z,100873.41
2018-07-07T17:47:36.564Z,100887.38
2018-07-07T17:50:06.712Z,100880.37
2018-07-07T17:52:38.124Z,100882.98
2018-07-07T17:55:11.162Z,100884.05
2018-07-07T17:57:40.178Z,100882.03
2018-07-07T18:00:10.380Z,100885.41
2018-07-07T18:02:39.013Z,100885.30
2018-07-07T18:05:08.038Z,100886.36
2018-07-07T18:07:36.611Z,100890.49
2018-07-07T18:10:05.486Z,100890.81
2018-07-07T18:12:34.589Z,100898.09
2018-07-07T18:15:07.108Z,100897.42
2018-07-07T18:17:35.638Z,100899.73
2018-07-07T18:20:05.449Z,100901.55
2018-07-07T18:22:34.058Z,100901.83
2018-07-07T18:25:02.940Z,100901.50
2018-07-07T18:27:31.967Z,100898.88
2018-07-07T18:30:01.244Z,100897.87
2018-07-07T18:32:29.963Z,100899.83
2018-07-07T18:34:58.787Z,100899.42
2018-07-07T18:37:27.392Z,100898.66
2018-07-07T18:39:56.202Z,100900.36
2018-07-07T18:42:24.760Z,100898.09
2018-07-07T18:44:55.237Z,100896.95
2018-07-07T18:47:24.051Z,100897.48
2018-07-07T18:49:52.641Z,100899.52
2018-07-07T18:52:21.167Z,100902.17
2018-07-07T18:54:50.082Z,100901.16
2018-07-07T18:57:18.800Z,100912.03
2018-07-07T18:59:48.008Z,100907.48
2018-07-07T19:02:17.010Z,100909.14
2018-07-07T19:04:49.274Z,100911.85
2018-07-07T19:07:17.819Z,100908.05
2018-07-07T19:09:46.380Z,100903.50
2018-07-07T19:12:14.928Z,100911.23
2018-07-07T19:14:43.823Z,100911.23
2018-07-07T19:17:12.685Z,100918.30
2018-07-07T19:19:41.623Z,100918.75
2018-07-07T19:22:15.630Z,100917.61
2018-07-07T19:24:49.274Z,100921.42
2018-07-07T19:27:18.620Z,100927.16
2018-07-07T19:29:47.671Z,100927.59
2018-07-07T19:32:21.390Z,100923.96
2018-07-07T19:35:00.805Z,100933.16
2018-07-07T19:37:30.641Z,100934.07
2018-07-07T19:39:59.196Z,100939.20
2018-07-07T19:42:27.708Z,100953.30
2018-07-07T19:44:56.566Z,100946.05
2018-07-07T19:47:25.085Z,100955.72
2018-07-07T19:49:53.611Z,100952.72
2018-07-07T19:52:23.020Z,100959.84
2018-07-07T19:54:59.108Z,100957.53
2018-07-07T19:57:27.748Z,100961.44
2018-07-07T20:00:02.314Z,100963.33
2018-07-07T20:02:33.421Z,100963.53
2018-07-07T20:05:03.066Z,100955.11
2018-07-07T20:07:31.683Z,100964.58
2018-07-07T20:10:00.268Z,100965.45
2018-07-07T20:12:36.170Z,100971.17
2018-07-07T20:15:04.852Z,100967.33
2018-07-07T20:17:44.877Z,100961.78
2018-07-07T20:21:50.025Z,100962.96
2018-07-07T20:24:21.862Z,100965.48
2018-07-07T20:27:06.402Z,100963.66
2018-07-07T20:29:35.670Z,100959.09
2018-07-07T20:32:08.973Z,100964.02
2018-07-07T20:34:37.687Z,100970.44
2018-07-07T20:37:06.655Z,100971.11
2018-07-07T20:39:39.798Z,100976.66
2018-07-07T20:42:08.319Z,100971.28
2018-07-07T20:44:37.198Z,100968.42
2018-07-07T20:47:11.658Z,100974.98
2018-07-07T20:49:40.219Z,100973.81
2018-07-07T20:52:09.259Z,100978.54
2018-07-07T20:54:37.823Z,100985.91
2018-07-07T20:57:06.389Z,100983.55
2018-07-07T20:59:35.514Z,100988.27
2018-07-07T21:02:05.174Z,100994.50
2018-07-07T21:04:34.883Z,100988.44
2018-07-07T21:07:03.888Z,100993.33
2018-07-07T21:09:38.983Z,100991.45
2018-07-07T21:12:07.727Z,100992.11
2018-07-07T21:14:36.680Z,100994.80
2018-07-07T21:17:05.238Z,100994.80
2018-07-07T21:19:33.810Z,100995.65
2018-07-07T21:22:06.218Z,100994.62
2018-07-07T21:24:34.733Z,100995.64
2018-07-07T21:27:03.296Z,100987.20
2018-07-07T21:29:32.944Z,100997.47
2018-07-07T21:32:01.443Z,100997.60
2018-07-07T21:34:30.024Z,100994.53
2018-07-07T21:37:05.538Z,100993.01
2018-07-07T21:39:34.096Z,100995.52
2018-07-07T21:42:07.946Z,100994.34
2018-07-07T21:44:36.926Z,100997.20
2018-07-07T21:47:05.603Z,100994.33
2018-07-07T21:49:34.232Z,101001.37
2018-07-07T21:52:05.027Z,100998.17
2018-07-07T21:54:33.567Z,100999.31
2018-07-07T21:57:02.160Z,100996.29
2018-07-07T21:59:31.048Z,100998.25
2018-07-07T22:04:44.272Z,100998.20
2018-07-07T22:07:17.955Z,101001.70
2018-07-07T22:09:46.937Z,101003.13
2018-07-07T22:12:15.525Z,100997.90
2018-07-07T22:14:44.197Z,101008.83
2018-07-07T22:17:16.651Z,101009.81
2018-07-07T22:19:45.308Z,101006.11
2018-07-07T22:22:14.379Z,101007.08
2018-07-07T22:24:44.493Z,101001.48
2018-07-07T22:27:14.306Z,101006.72
2018-07-07T22:29:42.918Z,101003.80
2018-07-07T22:32:17.142Z,101008.16
2018-07-07T22:34:45.755Z,101009.33
2018-07-07T22:37:14.403Z,101010.52
2018-07-07T22:39:44.493Z,101005.44
2018-07-07T22:42:20.311Z,101003.22
2018-07-07T22:44:50.019Z,101002.20
2018-07-07T22:47:18.595Z,101002.67
2018-07-07T22:49:47.105Z,101000.15
2018-07-07T22:52:17.835Z,101000.94
2018-07-07T22:54:46.463Z,101004.73
2018-07-07T22:57:15.071Z,101009.30
2018-07-07T22:59:44.074Z,101005.00
2018-07-07T23:02:13.186Z,101005.83
2018-07-07T23:04:42.576Z,101002.58
2018-07-07T23:07:12.388Z,101003.56
2018-07-07T23:09:41.059Z,101009.39
2018-07-07T23:12:09.613Z,101008.02
2018-07-07T23:14:39.777Z,101007.45
2018-07-07T23:17:08.327Z,101001.06
2018-07-07T23:19:38.819Z,100997.66
2018-07-07T23:22:08.286Z,101004.98
2018-07-07T23:24:51.395Z,101002.95
2018-07-07T23:27:20.379Z,101000.23
2018-07-07T23:29:48.909Z,101004.05
2018-07-07T23:32:17.440Z,101001.66
2018-07-07T23:34:46.387Z,101008.69
2018-07-07T23:37:15.034Z,101016.17
2018-07-07T23:39:43.539Z,101011.62
2018-07-07T23:42:12.449Z,101017.89
2018-07-07T23:44:40.977Z,101014.99
2018-07-07T23:47:10.016Z,101016.98
2018-07-07T23:49:38.917Z,101013.89
2018-07-07T23:52:07.532Z,101017.02
2018-07-07T23:54:36.119Z,101018.67
2018-07-07T23:57:08.824Z,101012.73
2018-07-07T23:59:37.327Z,101018.10
